Time,TemperatureF,DewpointF,PressureIn,WindDirection,WindDirectionDegrees,WindSpeedMPH,WindSpeedGustMPH,Humidity,HourlyPrecipIn,Conditions,Clouds,dailyrainin,SoftwareType,DateUTC
2013-02-04 00:03:00,33.8,25.7,29.80,South,178,0.0,0.0,72,0.00,CLR,SKC,0.00,WeatherDisplay:10.37,2013-02-04 06:03:00,
2013-02-04 00:08:00,33.7,25.6,29.80,South,178,0.0,0.0,72,0.00,CLR,SKC,0.00,WeatherDisplay:10.37,2013-02-04 06:08:00,
2013-02-04 00:13:00,33.5,25.8,29.80,South,178,0.0,0.0,73,0.00,CLR,SKC,0.00,WeatherDisplay:10.37,2013-02-04 06:13:00,
2013-02-04 00:18:00,33.4,26.0,29.80,South,178,0.0,0.0,74,0.00,CLR,SKC,0.00,WeatherDisplay:10.37,2013-02-04 06:18:00,
2013-02-04 00:23:00,33.1,25.7,29.80,South,178,0.0,0.0,74,0.00,CLR,SKC,0.00,WeatherDisplay:10.37,2013-02-04 06:23:00,
2013-02-04 00:28:00,32.9,25.8,29.80,South,178,0.0,0.0,75,0.00,CLR,SKC,0.00,WeatherDisplay:10.37,2013-02-04 06:28:00,
2013-02-04 00:33:00,32.9,25.8,29.80,South,178,2.3,2.3,75,0.00,CLR,SKC,0.00,WeatherDisplay:10.37,2013-02-04 06:33:00,
2013-02-04 00:38:00,33.1,26.0,29.80,South,178,0.0,0.0,75,0.00,CLR,SKC,0.00,WeatherDisplay:10.37,2013-02-04 06:38:00,
2013-02-04 00:43:00,33.4,26.3,29.80,South,178,0.0,0.0,75,0.00,CLR,SKC,0.00,WeatherDisplay:10.37,2013-02-04 06:43:00,
2013-02-04 00:48:00,33.7,26.3,29.80,South,178,1.1,1.1,74,0.00,CLR,SKC,0.00,WeatherDisplay:10.37,2013-02-04 06:48:00,
2013-02-04 00:53:00,33.8,26.1,29.79,South,178,0.0,0.0,73,0.00,CLR,SKC,0.00,WeatherDisplay:10.37,2013-02-04 06:53:00,
2013-02-04 00:58:00,34.0,26.3,29.79,South,178,0.0,0.0,73,0.00,CLR,SKC,0.00,WeatherDisplay:10.37,2013-02-04 06:58:00,
2013-02-04 01:03:00,33.8,26.1,29.78,South,178,0.0,0.0,73,0.00,CLR,SKC,0.00,WeatherDisplay:10.37,2013-02-04 07:03:00,
2013-02-04 01:08:00,33.8,26.1,29.78,South,178,0.0,0.0,73,0.00,CLR,SKC,0.00,WeatherDisplay:10.37,2013-02-04 07:08:00,
2013-02-04 01:13:00,33.7,26.0,29.78,South,178,0.0,0.0,73,0.00,CLR,SKC,0.00,WeatherDisplay:10.37,2013-02-04 07:13:00,
2013-02-04 01:18:00,33.4,25.7,29.78,South,178,0.0,0.0,73,0.00,CLR,SKC,0.00,WeatherDisplay:10.37,2013-02-04 07:18:00,
2013-02-04 01:23:00,33.2,25.8,29.78,South,178,0.0,0.0,74,0.00,CLR,SKC,0.00,WeatherDisplay:10.37,2013-02-04 07:23:00,
2013-02-04 01:28:00,33.1,25.7,29.78,South,178,0.0,0.0,74,0.00,CLR,SKC,0.00,WeatherDisplay:10.37,2013-02-04 07:28:00,
2013-02-04 01:33:00,32.8,25.4,29.78,South,178,0.0,0.0,74,0.00,CLR,SKC,0.00,WeatherDisplay:10.37,2013-02-04 07:33:00,
2013-02-04 01:38:00,32.4,25.0,29.78,South,178,0.0,0.0,74,0.00,CLR,SKC,0.00,WeatherDisplay:10.37,2013-02-04 07:38:00,
2013-02-04 01:43:00,32.1,25.4,29.78,South,178,0.0,0.0,76,0.00,CLR,SKC,0.00,WeatherDisplay:10.37,2013-02-04 07:43:00,
2013-02-04 01:48:00,31.9,25.2,29.78,South,178,0.0,0.0,76,0.00,CLR,SKC,0.00,WeatherDisplay:10.37,2013-02-04 07:48:00,
2013-02-04 01:53:00,31.8,25.1,29.78,South,178,0.0,0.0,76,0.00,CLR,SKC,0.00,WeatherDisplay:10.37,2013-02-04 07:53:00,
2013-02-04 01:58:00,31.6,24.9,29.78,South,178,0.0,0.0,76,0.00,CLR,SKC,0.00,WeatherDisplay:10.37,2013-02-04 07:58:00,
2013-02-04 02:03:00,31.3,24.6,29.77,South,178,0.0,0.0,76,0.00,CLR,SKC,0.00,WeatherDisplay:10.37,2013-02-04 08:03:00,
2013-02-04 02:08:00,31.0,24.3,29.77,South,178,0.0,0.0,76,0.00,CLR,SKC,0.00,WeatherDisplay:10.37,2013-02-04 08:08:00,
2013-02-04 02:13:00,30.6,24.2,29.77,South,178,0.0,0.0,77,0.00,CLR,SKC,0.00,WeatherDisplay:10.37,2013-02-04 08:13:00,
2013-02-04 02:18:00,30.4,24.1,29.77,South,178,0.0,0.0,77,0.00,CLR,SKC,0.00,WeatherDisplay:10.37,2013-02-04 08:18:00,
2013-02-04 02:23:00,30.1,24.1,29.78,South,178,0.0,0.0,78,0.00,CLR,SKC,0.00,WeatherDisplay:10.37,2013-02-04 08:23:00,
2013-02-04 02:28:00,30.0,24.0,29.78,South,178,0.0,0.0,78,0.00,CLR,SKC,0.00,WeatherDisplay:10.37,2013-02-04 08:28:00,
2013-02-04 02:33:00,29.8,23.8,29.78,South,178,0.0,0.0,78,0.00,CLR,SKC,0.00,WeatherDisplay:10.37,2013-02-04 08:33:00,
2013-02-04 02:38:00,29.7,24.0,29.78,South,178,0.0,0.0,79,0.00,CLR,SKC,0.00,WeatherDisplay:10.37,2013-02-04 08:38:00,
2013-02-04 02:43:00,29.4,23.7,29.78,South,178,0.0,0.0,79,0.00,CLR,SKC,0.00,WeatherDisplay:10.37,2013-02-04 08:43:00,
2013-02-04 02:48:00,29.4,24.0,29.78,South,178,0.0,0.0,80,0.00,CLR,SKC,0.00,WeatherDisplay:10.37,2013-02-04 08:48:00,
2013-02-04 02:53:00,29.3,23.9,29.78,South,178,0.0,0.0,80,0.00,CLR,SKC,0.00,WeatherDisplay:10.37,2013-02-04 08:53:00,
2013-02-04 02:58:00,29.1,24.0,29.79,South,178,0.0,0.0,81,0.00,CLR,SKC,0.00,WeatherDisplay:10.37,2013-02-04 08:58:00,
2013-02-04 03:03:00,29.3,24.2,29.78,South,178,2.1,2.1,81,0.00,CLR,SKC,0.00,WeatherDisplay:10.37,2013-02-04 09:03:00,
2013-02-04 03:08:00,29.7,24.6,29.79,South,178,2.1,2.1,81,0.00,CLR,SKC,0.00,WeatherDisplay:10.37,2013-02-04 09:08:00,
2013-02-04 03:13:00,30.3,25.5,29.78,NW,306,8.5,8.5,82,0.00,CLR,SKC,0.00,WeatherDisplay:10.37,2013-02-04 09:13:00,
2013-02-04 03:18:00,31.5,26.3,29.78,NW,312,8.5,8.5,81,0.00,CLR,SKC,0.00,WeatherDisplay:10.37,2013-02-04 09:18:00,
2013-02-04 03:23:00,32.8,26.7,29.78,NW,312,7.4,7.4,78,0.00,CLR,SKC,0.00,WeatherDisplay:10.37,2013-02-04 09:23:00,
2013-02-04 03:28:00,33.4,26.3,29.78,WNW,302,6.9,6.9,75,0.00,CLR,SKC,0.00,WeatherDisplay:10.37,2013-02-04 09:28:00,
2013-02-04 03:33:00,33.2,26.1,29.78,NW,313,7.4,7.4,75,0.00,CLR,SKC,0.00,WeatherDisplay:10.37,2013-02-04 09:33:00,
2013-02-04 03:38:00,33.5,26.4,29.78,NW,312,6.9,6.9,75,0.00,CLR,SKC,0.00,WeatherDisplay:10.37,2013-02-04 09:38:00,
2013-02-04 03:43:00,33.7,26.3,29.78,NW,306,7.4,7.4,74,0.00,CLR,SKC,0.00,WeatherDisplay:10.37,2013-02-04 09:43:00,
2013-02-04 03:48:00,33.7,26.3,29.78,NW,312,7.4,7.4,74,0.00,CLR,SKC,0.00,WeatherDisplay:10.37,2013-02-04 09:48:00,
2013-02-04 03:54:00,33.8,26.4,29.78,NW,316,7.4,7.4,74,0.00,CLR,SKC,0.00,WeatherDisplay:10.37,2013-02-04 09:54:00,
2013-02-04 03:59:00,33.8,26.4,29.79,NW,324,7.4,7.4,74,0.00,CLR,SKC,0.00,WeatherDisplay:10.37,2013-02-04 09:59:00,
2013-02-04 04:04:00,34.0,26.6,29.79,NW,319,8.1,8.1,74,0.00,CLR,SKC,0.00,WeatherDisplay:10.37,2013-02-04 10:04:00,
2013-02-04 04:09:00,34.3,26.9,29.80,NW,322,11.5,11.5,74,0.00,CLR,SKC,0.00,WeatherDisplay:10.37,2013-02-04 10:09:00,
2013-02-04 04:14:00,35.2,27.7,29.80,NNW,333,11.7,11.7,74,0.00,CLR,SKC,0.00,WeatherDisplay:10.37,2013-02-04 10:14:00,
2013-02-04 04:19:00,35.5,27.7,29.80,NNW,334,11.7,11.7,73,0.00,CLR,SKC,0.00,WeatherDisplay:10.37,2013-02-04 10:19:00,
2013-02-04 04:24:00,35.6,27.8,29.80,NNW,339,10.4,10.4,73,0.00,CLR,SKC,0.00,WeatherDisplay:10.37,2013-02-04 10:24:00,
2013-02-04 04:29:00,35.8,28.0,29.80,North,351,10.6,10.6,73,0.00,CLR,SKC,0.00,WeatherDisplay:10.37,2013-02-04 10:29:00,
2013-02-04 04:34:00,35.9,28.1,29.80,NNW,344,11.7,11.7,73,0.00,CLR,SKC,0.00,WeatherDisplay:10.37,2013-02-04 10:34:00,
2013-02-04 04:39:00,36.0,27.8,29.80,NNW,334,13.8,13.8,72,0.00,CLR,SKC,0.00,WeatherDisplay:10.37,2013-02-04 10:39:00,
2013-02-04 04:44:00,35.9,28.1,29.80,NNW,339,12.7,12.7,73,0.00,CLR,SKC,0.00,WeatherDisplay:10.37,2013-02-04 10:44:00,
2013-02-04 04:49:00,35.9,28.1,29.81,NNW,333,11.7,11.7,73,0.00,CLR,SKC,0.00,WeatherDisplay:10.37,2013-02-04 10:49:00,
2013-02-04 04:54:00,35.6,28.1,29.82,NNW,332,17.3,17.3,74,0.00,CLR,SKC,0.00,WeatherDisplay:10.37,2013-02-04 10:54:00,
2013-02-04 04:59:00,35.5,28.0,29.82,NW,316,14.8,14.8,74,0.00,CLR,SKC,0.00,WeatherDisplay:10.37,2013-02-04 10:59:00,
2013-02-04 05:04:00,35.2,28.1,29.83,NNW,344,13.8,13.8,75,0.00,CLR,SKC,0.00,WeatherDisplay:10.37,2013-02-04 11:04:00,
2013-02-04 05:09:00,35.0,27.9,29.83,NNW,334,11.7,11.7,75,0.00,CLR,SKC,0.00,WeatherDisplay:10.37,2013-02-04 11:09:00,
2013-02-04 05:14:00,34.9,27.8,29.83,North,3,12.7,12.7,75,0.00,CLR,SKC,0.00,WeatherDisplay:10.37,2013-02-04 11:14:00,
2013-02-04 05:19:00,34.6,27.8,29.85,NNW,336,13.8,13.8,76,0.00,CLR,SKC,0.00,WeatherDisplay:10.37,2013-02-04 11:19:00,
2013-02-04 05:24:00,34.1,27.6,29.85,NW,315,18.4,18.4,77,0.00,CLR,SKC,0.00,WeatherDisplay:10.37,2013-02-04 11:24:00,
2013-02-04 05:29:00,33.8,27.7,29.85,North,358,15.0,15.0,78,0.00,CLR,SKC,0.00,WeatherDisplay:10.37,2013-02-04 11:29:00,
2013-02-04 05:34:00,33.4,27.3,29.85,North,354,17.0,17.0,78,0.00,CLR,SKC,0.00,WeatherDisplay:10.37,2013-02-04 11:34:00,
2013-02-04 05:39:00,32.9,27.1,29.86,NNW,340,12.7,12.7,79,0.00,CLR,SKC,0.00,WeatherDisplay:10.37,2013-02-04 11:39:00,
2013-02-04 05:44:00,32.5,27.0,29.86,NNW,348,11.5,11.5,80,0.00,CLR,SKC,0.00,WeatherDisplay:10.37,2013-02-04 11:44:00,
2013-02-04 05:49:00,32.1,26.9,29.87,NNW,344,13.8,13.8,81,0.00,CLR,SKC,0.00,WeatherDisplay:10.37,2013-02-04 11:49:00,
2013-02-04 05:54:00,31.6,26.4,29.87,North,353,12.7,12.7,81,0.00,CLR,SKC,0.00,WeatherDisplay:10.37,2013-02-04 11:54:00,
2013-02-04 05:59:00,31.3,26.4,29.88,North,358,17.3,17.3,82,0.00,CLR,SKC,0.00,WeatherDisplay:10.37,2013-02-04 11:59:00,
2013-02-04 06:04:00,31.0,26.4,29.88,NNE,12,17.3,17.3,83,0.00,CLR,SKC,0.00,WeatherDisplay:10.37,2013-02-04 12:04:00,
2013-02-04 06:09:00,30.7,26.1,29.89,NNW,346,11.5,11.5,83,0.00,CLR,SKC,0.00,WeatherDisplay:10.37,2013-02-04 12:09:00,
2013-02-04 06:14:00,30.4,26.1,29.89,North,4,13.8,13.8,84,0.00,CLR,SKC,0.00,WeatherDisplay:10.37,2013-02-04 12:14:00,
2013-02-04 06:19:00,30.1,25.8,29.90,North,356,15.0,15.0,84,0.00,CLR,SKC,0.00,WeatherDisplay:10.37,2013-02-04 12:19:00,
2013-02-04 06:24:00,30.1,26.1,29.90,NNW,343,9.2,9.2,85,0.00,CLR,SKC,0.00,WeatherDisplay:10.37,2013-02-04 12:24:00,
2013-02-04 06:29:00,30.1,26.1,29.91,NW,323,17.3,17.3,85,0.00,CLR,SKC,0.00,WeatherDisplay:10.37,2013-02-04 12:29:00,
2013-02-04 06:34:00,30.1,26.4,29.91,North,3,13.8,13.8,86,0.00,CLR,SKC,0.00,WeatherDisplay:10.37,2013-02-04 12:34:00,
2013-02-04 06:39:00,29.8,26.1,29.91,North,10,15.0,15.0,86,0.00,CLR,SKC,0.00,WeatherDisplay:10.37,2013-02-04 12:39:00,
2013-02-04 06:44:00,29.5,25.8,29.91,NNW,344,15.0,15.0,86,0.00,CLR,SKC,0.00,WeatherDisplay:10.37,2013-02-04 12:44:00,
2013-02-04 06:49:00,29.3,25.6,29.92,NNW,348,11.7,11.7,86,0.00,CLR,SKC,0.00,WeatherDisplay:10.37,2013-02-04 12:49:00,
2013-02-04 06:54:00,28.4,24.5,29.92,NNE,20,17.3,17.3,85,0.00,CLR,SKC,0.00,WeatherDisplay:10.37,2013-02-04 12:54:00,
2013-02-04 06:59:00,27.0,23.1,29.93,NNE,32,18.4,18.4,85,0.00,CLR,SKC,0.00,WeatherDisplay:10.37,2013-02-04 12:59:00,
2013-02-04 07:04:00,26.4,22.5,29.94,North,353,17.3,17.3,85,0.00,CLR,SKC,0.00,WeatherDisplay:10.37,2013-02-04 13:04:00,
2013-02-04 07:09:00,26.0,22.1,29.94,NNE,18,20.7,20.7,85,0.00,CLR,SKC,0.00,WeatherDisplay:10.37,2013-02-04 13:09:00,
2013-02-04 07:14:00,25.7,21.8,29.94,NNE,20,15.0,15.0,85,0.00,CLR,SKC,0.00,WeatherDisplay:10.37,2013-02-04 13:14:00,
2013-02-04 07:19:00,25.6,21.7,29.95,NNE,14,17.3,17.3,85,0.00,CLR,SKC,0.00,WeatherDisplay:10.37,2013-02-04 13:19:00,
2013-02-04 07:24:00,25.3,21.4,29.95,NNE,20,21.9,21.9,85,0.00,CLR,SKC,0.00,WeatherDisplay:10.37,2013-02-04 13:24:00,
2013-02-04 07:29:00,25.0,21.1,29.96,North,358,20.7,20.7,85,0.00,CLR,SKC,0.00,WeatherDisplay:10.37,2013-02-04 13:29:00,
2013-02-04 07:34:00,24.7,20.8,29.96,NNE,17,18.0,18.0,85,0.00,CLR,SKC,0.00,WeatherDisplay:10.37,2013-02-04 13:34:00,
2013-02-04 07:39:00,24.4,20.5,29.97,NNE,20,18.4,18.4,85,0.00,CLR,SKC,0.00,WeatherDisplay:10.37,2013-02-04 13:39:00,
2013-02-04 07:44:00,24.1,20.2,29.97,NNE,27,19.6,19.6,85,0.00,CLR,SKC,0.00,WeatherDisplay:10.37,2013-02-04 13:44:00,
2013-02-04 07:49:00,23.9,20.0,29.98,NNE,25,18.4,18.4,85,0.00,CLR,SKC,0.00,WeatherDisplay:10.37,2013-02-04 13:49:00,
2013-02-04 07:54:00,23.9,20.0,29.98,North,4,18.4,18.4,85,0.00,CLR,SKC,0.00,WeatherDisplay:10.37,2013-02-04 13:54:00,
2013-02-04 07:59:00,23.8,19.9,29.98,North,356,23.0,23.0,85,0.00,CLR,SKC,0.00,WeatherDisplay:10.37,2013-02-04 13:59:00,
2013-02-04 08:04:00,23.8,19.9,29.98,North,5,20.1,20.1,85,0.00,CLR,SKC,0.00,WeatherDisplay:10.37,2013-02-04 14:04:00,
2013-02-04 08:09:00,23.8,19.9,29.98,NNW,341,17.3,17.3,85,0.00,CLR,SKC,0.00,WeatherDisplay:10.37,2013-02-04 14:09:00,
2013-02-04 08:14:00,23.8,19.9,29.99,NNE,22,17.3,17.3,85,0.00,CLR,SKC,0.00,WeatherDisplay:10.37,2013-02-04 14:14:00,
2013-02-04 08:19:00,23.6,19.8,29.99,North,353,17.3,17.3,85,0.00,CLR,SKC,0.00,WeatherDisplay:10.37,2013-02-04 14:19:00,
2013-02-04 08:24:00,23.6,19.8,29.99,North,350,18.4,18.4,85,0.00,CLR,SKC,0.00,WeatherDisplay:10.37,2013-02-04 14:24:00,
2013-02-04 08:29:00,23.8,19.9,30.00,North,4,18.4,18.4,85,0.00,CLR,SKC,0.00,WeatherDisplay:10.37,2013-02-04 14:29:00,
2013-02-04 08:34:00,23.8,19.9,30.00,North,8,12.7,12.7,85,0.00,CLR,SKC,0.00,WeatherDisplay:10.37,2013-02-04 14:34:00,
2013-02-04 08:39:00,23.9,20.0,30.00,NNE,14,15.9,15.9,85,0.00,CLR,SKC,0.00,WeatherDisplay:10.37,2013-02-04 14:39:00,
2013-02-04 08:45:00,23.9,20.0,30.00,NNE,18,17.0,17.0,85,0.00,CLR,SKC,0.00,WeatherDisplay:10.37,2013-02-04 14:45:00,
2013-02-04 08:50:00,23.9,20.0,30.00,NNE,14,13.8,13.8,85,0.00,CLR,SKC,0.00,WeatherDisplay:10.37,2013-02-04 14:50:00,
2013-02-04 08:55:00,23.9,20.0,30.01,North,0,13.8,13.8,85,0.00,CLR,SKC,0.00,WeatherDisplay:10.37,2013-02-04 14:55:00,
2013-02-04 09:00:00,24.1,20.2,30.01,NNE,14,13.8,13.8,85,0.00,CLR,SKC,0.00,WeatherDisplay:10.37,2013-02-04 15:00:00,
2013-02-04 09:05:00,24.1,20.2,30.01,North,358,9.2,9.2,85,0.00,CLR,SKC,0.00,WeatherDisplay:10.37,2013-02-04 15:05:00,
2013-02-04 09:10:00,24.1,20.0,30.01,North,7,12.7,12.7,84,0.00,CLR,SKC,0.00,WeatherDisplay:10.37,2013-02-04 15:10:00,
2013-02-04 09:15:00,24.2,19.8,30.01,NNE,31,18.4,18.4,83,0.00,CLR,SKC,0.00,WeatherDisplay:10.37,2013-02-04 15:15:00,
2013-02-04 09:20:00,24.4,20.0,30.01,North,5,15.0,15.0,83,0.00,CLR,SKC,0.00,WeatherDisplay:10.37,2013-02-04 15:20:00,
2013-02-04 09:25:00,24.5,19.8,30.01,NNE,21,20.7,20.7,82,0.00,CLR,SKC,0.00,WeatherDisplay:10.37,2013-02-04 15:25:00,
2013-02-04 09:30:00,24.7,20.0,30.01,NNE,21,12.7,12.7,82,0.00,CLR,SKC,0.00,WeatherDisplay:10.37,2013-02-04 15:30:00,
2013-02-04 09:35:00,24.7,20.0,30.02,North,10,16.1,16.1,82,0.00,CLR,SKC,0.00,WeatherDisplay:10.37,2013-02-04 15:35:00,
2013-02-04 09:40:00,24.7,20.0,30.02,NNE,21,18.4,18.4,82,0.00,CLR,SKC,0.00,WeatherDisplay:10.37,2013-02-04 15:40:00,
2013-02-04 09:45:00,25.0,20.3,30.01,North,5,13.8,13.8,82,0.00,CLR,SKC,0.00,WeatherDisplay:10.37,2013-02-04 15:45:00,
2013-02-04 09:50:00,25.0,20.3,30.02,North,350,18.4,18.4,82,0.00,CLR,SKC,0.00,WeatherDisplay:10.37,2013-02-04 15:50:00,
2013-02-04 09:55:00,25.1,20.4,30.02,North,351,17.0,17.0,82,0.00,CLR,SKC,0.00,WeatherDisplay:10.37,2013-02-04 15:55:00,
2013-02-04 10:00:00,25.3,20.3,30.03,NNW,348,13.8,13.8,81,0.00,CLR,SKC,0.00,WeatherDisplay:10.37,2013-02-04 16:00:00,
2013-02-04 10:05:00,25.4,20.4,30.03,NNE,22,13.8,13.8,81,0.00,CLR,SKC,0.00,WeatherDisplay:10.37,2013-02-04 16:05:00,
2013-02-04 10:10:00,25.6,20.6,30.03,NNW,341,18.0,18.0,81,0.00,CLR,SKC,0.00,WeatherDisplay:10.37,2013-02-04 16:10:00,
2013-02-04 10:15:00,25.6,20.6,30.03,North,8,18.4,18.4,81,0.00,CLR,SKC,0.00,WeatherDisplay:10.37,2013-02-04 16:15:00,
2013-02-04 10:20:00,25.8,20.8,30.03,NNE,21,11.7,11.7,81,0.00,CLR,SKC,0.00,WeatherDisplay:10.37,2013-02-04 16:20:00,
2013-02-04 10:25:00,26.0,20.7,30.03,North,358,13.8,13.8,80,0.00,CLR,SKC,0.00,WeatherDisplay:10.37,2013-02-04 16:25:00,
2013-02-04 10:30:00,26.0,20.7,30.04,NNE,20,13.8,13.8,80,0.00,CLR,SKC,0.00,WeatherDisplay:10.37,2013-02-04 16:30:00,
2013-02-04 10:35:00,26.1,20.8,30.04,North,10,18.0,18.0,80,0.00,CLR,SKC,0.00,WeatherDisplay:10.37,2013-02-04 16:35:00,
2013-02-04 10:40:00,26.3,21.0,30.04,NNE,21,12.7,12.7,80,0.00,CLR,SKC,0.00,WeatherDisplay:10.37,2013-02-04 16:40:00,
2013-02-04 10:45:00,26.4,21.1,30.04,NNE,24,13.8,13.8,80,0.00,CLR,SKC,0.00,WeatherDisplay:10.37,2013-02-04 16:45:00,
2013-02-04 10:50:00,26.3,20.7,30.04,North,11,17.3,17.3,79,0.00,CLR,SKC,0.00,WeatherDisplay:10.37,2013-02-04 16:50:00,
2013-02-04 10:55:00,26.3,20.7,30.04,North,8,14.8,14.8,79,0.00,CLR,SKC,0.00,WeatherDisplay:10.37,2013-02-04 16:55:00,
2013-02-04 11:00:00,26.3,20.7,30.04,North,11,14.8,14.8,79,0.00,CLR,SKC,0.00,WeatherDisplay:10.37,2013-02-04 17:00:00,
2013-02-04 11:05:00,26.3,20.4,30.04,North,10,17.3,17.3,78,0.00,CLR,SKC,0.00,WeatherDisplay:10.37,2013-02-04 17:05:00,
2013-02-04 11:10:00,26.4,20.8,30.04,NNW,348,15.0,15.0,79,0.00,CLR,SKC,0.00,WeatherDisplay:10.37,2013-02-04 17:10:00,
2013-02-04 11:15:00,26.4,20.5,30.04,NNE,12,17.0,17.0,78,0.00,CLR,SKC,0.00,WeatherDisplay:10.37,2013-02-04 17:15:00,
2013-02-04 11:20:00,26.4,20.5,30.04,NNE,25,13.8,13.8,78,0.00,CLR,SKC,0.00,WeatherDisplay:10.37,2013-02-04 17:20:00,
2013-02-04 11:25:00,26.4,20.5,30.04,North,354,13.8,13.8,78,0.00,CLR,SKC,0.00,WeatherDisplay:10.37,2013-02-04 17:25:00,
2013-02-04 11:30:00,26.6,20.7,30.04,NNE,31,12.7,12.7,78,0.00,CLR,SKC,0.00,WeatherDisplay:10.37,2013-02-04 17:30:00,
2013-02-04 11:35:00,26.7,20.5,30.04,NNE,21,13.8,13.8,77,0.00,CLR,SKC,0.00,WeatherDisplay:10.37,2013-02-04 17:35:00,
2013-02-04 11:40:00,26.7,20.5,30.04,NNE,28,14.8,14.8,77,0.00,CLR,SKC,0.00,WeatherDisplay:10.37,2013-02-04 17:40:00,
2013-02-04 11:45:00,26.7,20.8,30.03,NNE,29,9.2,9.2,78,0.00,CLR,SKC,0.00,WeatherDisplay:10.37,2013-02-04 17:45:00,
2013-02-04 11:50:00,27.0,20.7,30.04,NE,35,11.7,11.7,77,0.00,CLR,SKC,0.00,WeatherDisplay:10.37,2013-02-04 17:50:00,
2013-02-04 11:55:00,27.0,20.7,30.04,NNE,21,13.8,13.8,77,0.00,CLR,SKC,0.00,WeatherDisplay:10.37,2013-02-04 17:55:00,
2013-02-04 12:00:00,27.0,20.4,30.03,NE,46,15.0,15.0,76,0.00,CLR,SKC,0.00,WeatherDisplay:10.37,2013-02-04 18:00:00,
2013-02-04 12:05:00,27.2,20.6,30.03,NNE,31,13.8,13.8,76,0.00,CLR,SKC,0.00,WeatherDisplay:10.37,2013-02-04 18:05:00,
2013-02-04 12:10:00,27.5,20.9,30.03,NNE,29,12.7,12.7,76,0.00,CLR,SKC,0.00,WeatherDisplay:10.37,2013-02-04 18:10:00,
2013-02-04 12:15:00,27.5,20.9,30.04,North,10,9.2,9.2,76,0.00,CLR,SKC,0.00,WeatherDisplay:10.37,2013-02-04 18:15:00,
2013-02-04 12:20:00,27.3,20.7,30.04,NNE,18,8.5,8.5,76,0.00,CLR,SKC,0.00,WeatherDisplay:10.37,2013-02-04 18:20:00,
2013-02-04 12:25:00,27.5,20.9,30.04,NNE,14,7.4,7.4,76,0.00,CLR,SKC,0.00,WeatherDisplay:10.37,2013-02-04 18:25:00,
2013-02-04 12:30:00,27.3,20.4,30.03,NNE,12,9.5,9.5,75,0.00,CLR,SKC,0.00,WeatherDisplay:10.37,2013-02-04 18:30:00,
2013-02-04 12:35:00,27.3,20.4,30.03,NNW,348,11.5,11.5,75,0.00,CLR,SKC,0.00,WeatherDisplay:10.37,2013-02-04 18:35:00,
2013-02-04 12:40:00,27.2,20.3,30.04,NNW,343,8.5,8.5,75,0.00,CLR,SKC,0.00,WeatherDisplay:10.37,2013-02-04 18:40:00,
2013-02-04 12:45:00,27.2,20.0,30.03,NNE,15,8.5,8.5,74,0.00,CLR,SKC,0.00,WeatherDisplay:10.37,2013-02-04 18:45:00,
2013-02-04 12:50:00,27.3,20.4,30.03,North,1,7.4,7.4,75,0.00,CLR,SKC,0.00,WeatherDisplay:10.37,2013-02-04 18:50:00,
2013-02-04 12:55:00,27.3,20.1,30.03,NNE,17,7.4,7.4,74,0.00,CLR,SKC,0.00,WeatherDisplay:10.37,2013-02-04 18:55:00,
2013-02-04 13:00:00,27.3,20.4,30.02,NNE,17,11.7,11.7,75,0.00,CLR,SKC,0.00,WeatherDisplay:10.37,2013-02-04 19:00:00,
2013-02-04 13:05:00,27.5,20.9,30.02,North,358,11.7,11.7,76,0.00,CLR,SKC,0.00,WeatherDisplay:10.37,2013-02-04 19:05:00,
2013-02-04 13:10:00,27.3,20.4,30.03,NNE,24,10.4,10.4,75,0.00,CLR,SKC,0.00,WeatherDisplay:10.37,2013-02-04 19:10:00,
2013-02-04 13:15:00,27.5,20.6,30.03,NNE,17,9.2,9.2,75,0.00,CLR,SKC,0.00,WeatherDisplay:10.37,2013-02-04 19:15:00,
2013-02-04 13:20:00,27.3,20.4,30.02,NNE,21,9.2,9.2,75,0.00,CLR,SKC,0.00,WeatherDisplay:10.37,2013-02-04 19:20:00,
2013-02-04 13:25:00,27.3,20.1,30.02,North,4,5.8,5.8,74,0.00,CLR,SKC,0.00,WeatherDisplay:10.37,2013-02-04 19:25:00,
2013-02-04 13:30:00,27.3,20.4,30.02,NNE,18,11.7,11.7,75,0.00,CLR,SKC,0.00,WeatherDisplay:10.37,2013-02-04 19:30:00,
2013-02-04 13:35:00,27.6,20.7,30.02,North,0,6.9,6.9,75,0.00,CLR,SKC,0.00,WeatherDisplay:10.37,2013-02-04 19:35:00,
2013-02-04 13:40:00,27.6,20.4,30.02,NNW,341,8.1,8.1,74,0.00,CLR,SKC,0.00,WeatherDisplay:10.37,2013-02-04 19:40:00,
2013-02-04 13:45:00,27.5,20.6,30.03,North,353,6.4,6.4,75,0.00,CLR,SKC,0.00,WeatherDisplay:10.37,2013-02-04 19:45:00,
2013-02-04 13:50:00,27.5,20.3,30.02,North,353,3.5,3.5,74,0.00,CLR,SKC,0.00,WeatherDisplay:10.37,2013-02-04 19:50:00,
2013-02-04 13:55:00,27.6,20.4,30.02,North,353,6.9,6.9,74,0.00,CLR,SKC,0.00,WeatherDisplay:10.37,2013-02-04 19:55:00,
2013-02-04 14:00:00,27.6,20.4,30.03,NNW,329,6.4,6.4,74,0.00,CLR,SKC,0.00,WeatherDisplay:10.37,2013-02-04 20:00:00,
2013-02-04 14:05:00,27.6,20.4,30.03,NW,319,4.6,4.6,74,0.00,CLR,SKC,0.00,WeatherDisplay:10.37,2013-02-04 20:05:00,
2013-02-04 14:10:00,27.6,20.4,30.03,NW,319,6.9,6.9,74,0.00,CLR,SKC,0.00,WeatherDisplay:10.37,2013-02-04 20:10:00,
2013-02-04 14:15:00,27.8,20.6,30.03,NW,320,5.8,5.8,74,0.00,CLR,SKC,0.00,WeatherDisplay:10.37,2013-02-04 20:15:00,
2013-02-04 14:20:00,27.9,20.7,30.03,NW,326,6.9,6.9,74,0.00,CLR,SKC,0.00,WeatherDisplay:10.37,2013-02-04 20:20:00,
2013-02-04 14:25:00,27.9,20.7,30.03,NW,326,5.8,5.8,74,0.00,CLR,SKC,0.00,WeatherDisplay:10.37,2013-02-04 20:25:00,
2013-02-04 14:30:00,27.9,20.7,30.03,North,356,7.4,7.4,74,0.00,CLR,SKC,0.00,WeatherDisplay:10.37,2013-02-04 20:30:00,
2013-02-04 14:35:00,27.8,20.6,30.02,North,3,6.9,6.9,74,0.00,CLR,SKC,0.00,WeatherDisplay:10.37,2013-02-04 20:35:00,
2013-02-04 14:40:00,27.6,20.4,30.03,North,3,3.5,3.5,74,0.00,CLR,SKC,0.00,WeatherDisplay:10.37,2013-02-04 20:40:00,
2013-02-04 14:45:00,27.8,20.9,30.03,NNW,344,6.9,6.9,75,0.00,CLR,SKC,0.00,WeatherDisplay:10.37,2013-02-04 20:45:00,
2013-02-04 14:50:00,27.6,20.7,30.02,North,350,6.9,6.9,75,0.00,CLR,SKC,0.00,WeatherDisplay:10.37,2013-02-04 20:50:00,
2013-02-04 14:55:00,27.6,20.7,30.02,NNW,348,7.4,7.4,75,0.00,CLR,SKC,0.00,WeatherDisplay:10.37,2013-02-04 20:55:00,
2013-02-04 15:00:00,27.5,20.6,30.02,NNW,348,6.9,6.9,75,0.00,CLR,SKC,0.00,WeatherDisplay:10.37,2013-02-04 21:00:00,
2013-02-04 15:05:00,27.5,20.9,30.01,NW,316,7.4,7.4,76,0.00,CLR,SKC,0.00,WeatherDisplay:10.37,2013-02-04 21:05:00,
2013-02-04 15:10:00,27.3,20.7,30.01,NW,316,3.5,3.5,76,0.00,CLR,SKC,0.00,WeatherDisplay:10.37,2013-02-04 21:10:00,
2013-02-04 15:15:00,27.5,20.9,30.01,NW,316,3.5,3.5,76,0.00,CLR,SKC,0.00,WeatherDisplay:10.37,2013-02-04 21:15:00,
2013-02-04 15:20:00,27.5,20.9,30.01,NW,316,3.5,3.5,76,0.00,CLR,SKC,0.00,WeatherDisplay:10.37,2013-02-04 21:20:00,
2013-02-04 15:25:00,27.6,21.0,30.01,NW,316,2.3,2.3,76,0.00,CLR,SKC,0.00,WeatherDisplay:10.37,2013-02-04 21:25:00,
2013-02-04 15:30:00,27.8,21.2,30.01,NW,322,4.6,4.6,76,0.00,CLR,SKC,0.00,WeatherDisplay:10.37,2013-02-04 21:30:00,
2013-02-04 15:35:00,27.6,20.7,30.01,NW,323,5.3,5.3,75,0.00,CLR,SKC,0.00,WeatherDisplay:10.37,2013-02-04 21:35:00,
2013-02-04 15:40:00,27.9,21.3,30.01,NW,326,3.5,3.5,76,0.00,CLR,SKC,0.00,WeatherDisplay:10.37,2013-02-04 21:40:00,
2013-02-04 15:45:00,27.9,21.0,30.01,NW,326,5.8,5.8,75,0.00,CLR,SKC,0.00,WeatherDisplay:10.37,2013-02-04 21:45:00,
2013-02-04 15:50:00,27.9,21.0,30.01,NW,326,6.9,6.9,75,0.00,CLR,SKC,0.00,WeatherDisplay:10.37,2013-02-04 21:50:00,
2013-02-04 15:55:00,27.8,21.2,30.01,NW,326,2.3,2.3,76,0.00,CLR,SKC,0.00,WeatherDisplay:10.37,2013-02-04 21:55:00,
2013-02-04 16:00:00,27.9,21.3,30.01,NW,326,5.3,5.3,76,0.00,CLR,SKC,0.00,WeatherDisplay:10.37,2013-02-04 22:00:00,
2013-02-04 16:05:00,27.8,20.9,30.00,NNW,339,6.9,6.9,75,0.00,CLR,SKC,0.00,WeatherDisplay:10.37,2013-02-04 22:05:00,
2013-02-04 16:11:00,27.8,20.9,30.00,NNW,339,1.1,0.0,75,0.00,CLR,SKC,0.00,WeatherDisplay:10.37,2013-02-04 22:11:00,
2013-02-04 16:16:00,27.8,20.9,30.00,NNW,339,3.5,3.5,75,0.00,CLR,SKC,0.00,WeatherDisplay:10.37,2013-02-04 22:16:00,
2013-02-04 16:21:00,27.6,20.7,30.00,NNW,339,5.8,5.8,75,0.00,CLR,SKC,0.00,WeatherDisplay:10.37,2013-02-04 22:21:00,
2013-02-04 16:26:00,27.6,20.7,29.99,NNW,339,6.9,6.9,75,0.00,CLR,SKC,0.00,WeatherDisplay:10.37,2013-02-04 22:26:00,
2013-02-04 16:31:00,27.5,20.9,29.99,NNW,339,4.6,4.6,76,0.00,CLR,SKC,0.00,WeatherDisplay:10.37,2013-02-04 22:31:00,
2013-02-04 16:36:00,27.5,20.9,29.99,NNW,339,4.2,4.2,76,0.00,CLR,SKC,0.00,WeatherDisplay:10.37,2013-02-04 22:36:00,
2013-02-04 16:41:00,27.5,20.9,29.98,NNW,339,2.1,2.1,76,0.00,CLR,SKC,0.00,WeatherDisplay:10.37,2013-02-04 22:41:00,
2013-02-04 16:46:00,27.5,20.9,29.98,NNW,339,3.2,3.2,76,0.00,CLR,SKC,0.00,WeatherDisplay:10.37,2013-02-04 22:46:00,
2013-02-04 16:51:00,27.3,20.7,29.98,NNW,339,3.2,3.2,76,0.00,CLR,SKC,0.00,WeatherDisplay:10.37,2013-02-04 22:51:00,
2013-02-04 16:56:00,27.3,20.7,29.98,NNW,339,0.0,0.0,76,0.00,CLR,SKC,0.00,WeatherDisplay:10.37,2013-02-04 22:56:00,
2013-02-04 17:01:00,27.3,20.7,29.98,NNW,339,1.1,1.1,76,0.00,CLR,SKC,0.00,WeatherDisplay:10.37,2013-02-04 23:01:00,
2013-02-04 17:06:00,27.2,20.6,29.98,NNW,339,1.1,1.1,76,0.00,CLR,SKC,0.00,WeatherDisplay:10.37,2013-02-04 23:06:00,
2013-02-04 17:11:00,27.2,20.6,29.98,NNW,339,1.1,0.0,76,0.00,CLR,SKC,0.00,WeatherDisplay:10.37,2013-02-04 23:11:00,
2013-02-04 17:16:00,27.2,20.6,29.98,NNW,339,0.0,0.0,76,0.00,CLR,SKC,0.00,WeatherDisplay:10.37,2013-02-04 23:16:00,
2013-02-04 17:21:00,27.2,20.6,29.97,NNW,339,0.0,0.0,76,0.00,CLR,SKC,0.00,WeatherDisplay:10.37,2013-02-04 23:21:00,
2013-02-04 17:26:00,27.2,20.6,29.97,NNW,339,0.0,0.0,76,0.00,CLR,SKC,0.00,WeatherDisplay:10.37,2013-02-04 23:26:00,
2013-02-04 17:31:00,27.3,20.7,29.98,NNW,339,0.0,0.0,76,0.00,CLR,SKC,0.00,WeatherDisplay:10.37,2013-02-04 23:31:00,
2013-02-04 17:36:00,27.3,20.7,29.98,NNW,339,0.0,0.0,76,0.00,CLR,SKC,0.00,WeatherDisplay:10.37,2013-02-04 23:36:00,
2013-02-04 17:41:00,27.3,20.7,29.98,NNW,339,0.0,0.0,76,0.00,CLR,SKC,0.00,WeatherDisplay:10.37,2013-02-04 23:41:00,
2013-02-04 17:46:00,27.3,20.7,29.97,NNW,339,0.0,0.0,76,0.00,CLR,SKC,0.00,WeatherDisplay:10.37,2013-02-04 23:46:00,
2013-02-04 17:51:00,27.2,20.9,29.97,NNW,339,0.0,0.0,77,0.00,CLR,SKC,0.00,WeatherDisplay:10.37,2013-02-04 23:51:00,
2013-02-04 17:56:00,27.2,20.9,29.97,NNW,339,0.0,0.0,77,0.00,CLR,SKC,0.00,WeatherDisplay:10.37,2013-02-04 23:56:00,
2013-02-04 18:01:00,27.0,20.7,29.97,NNW,339,0.0,0.0,77,0.00,CLR,SKC,0.00,WeatherDisplay:10.37,2013-02-05 00:01:00,
2013-02-04 18:06:00,27.0,20.7,29.98,NNW,339,0.0,0.0,77,0.00,CLR,SKC,0.00,WeatherDisplay:10.37,2013-02-05 00:06:00,
2013-02-04 18:11:00,27.0,20.7,29.97,NNW,339,0.0,0.0,77,0.00,CLR,SKC,0.00,WeatherDisplay:10.37,2013-02-05 00:11:00,
2013-02-04 18:16:00,27.0,20.7,29.97,NNW,339,0.0,0.0,77,0.00,CLR,SKC,0.00,WeatherDisplay:10.37,2013-02-05 00:16:00,
2013-02-04 18:21:00,26.9,20.7,29.97,NNW,339,1.1,0.0,77,0.00,CLR,SKC,0.00,WeatherDisplay:10.37,2013-02-05 00:21:00,
2013-02-04 18:26:00,26.9,20.7,29.98,NNW,339,0.0,0.0,77,0.00,CLR,SKC,0.00,WeatherDisplay:10.37,2013-02-05 00:26:00,
2013-02-04 18:31:00,26.9,20.7,29.99,NNW,339,1.1,0.0,77,0.00,CLR,SKC,0.00,WeatherDisplay:10.37,2013-02-05 00:31:00,
2013-02-04 18:36:00,26.9,20.7,29.99,NNW,339,0.0,0.0,77,0.00,CLR,SKC,0.00,WeatherDisplay:10.37,2013-02-05 00:36:00,
2013-02-04 18:41:00,26.9,21.0,29.99,NNW,339,2.3,2.3,78,0.00,CLR,SKC,0.00,WeatherDisplay:10.37,2013-02-05 00:41:00,
2013-02-04 18:46:00,27.0,21.1,29.99,NW,326,3.5,3.5,78,0.00,CLR,SKC,0.00,WeatherDisplay:10.37,2013-02-05 00:46:00,
2013-02-04 18:51:00,27.0,21.1,29.98,NW,326,1.1,1.1,78,0.00,CLR,SKC,0.00,WeatherDisplay:10.37,2013-02-05 00:51:00,
2013-02-04 18:56:00,26.9,21.0,29.99,West,260,2.3,2.3,78,0.00,CLR,SKC,0.00,WeatherDisplay:10.37,2013-02-05 00:56:00,
2013-02-04 19:01:00,26.9,21.0,30.00,West,260,2.1,2.1,78,0.00,CLR,SKC,0.00,WeatherDisplay:10.37,2013-02-05 01:01:00,
2013-02-04 19:06:00,26.9,21.0,30.00,SW,234,2.3,2.3,78,0.00,CLR,SKC,0.00,WeatherDisplay:10.37,2013-02-05 01:06:00,
2013-02-04 19:11:00,26.9,21.0,30.00,SW,233,6.9,6.9,78,0.00,CLR,SKC,0.00,WeatherDisplay:10.37,2013-02-05 01:11:00,
2013-02-04 19:16:00,26.9,21.0,30.00,SW,226,3.5,3.5,78,0.00,CLR,SKC,0.00,WeatherDisplay:10.37,2013-02-05 01:16:00,
2013-02-04 19:21:00,26.7,20.8,30.01,SW,226,1.1,0.0,78,0.00,CLR,SKC,0.00,WeatherDisplay:10.37,2013-02-05 01:21:00,
2013-02-04 19:26:00,26.7,20.8,30.00,SW,226,2.3,2.3,78,0.00,CLR,SKC,0.00,WeatherDisplay:10.37,2013-02-05 01:26:00,
2013-02-04 19:31:00,26.7,20.8,30.01,SW,226,3.5,3.5,78,0.00,CLR,SKC,0.00,WeatherDisplay:10.37,2013-02-05 01:31:00,
2013-02-04 19:36:00,26.6,21.0,30.01,SW,227,4.2,4.2,79,0.00,CLR,SKC,0.00,WeatherDisplay:10.37,2013-02-05 01:36:00,
2013-02-04 19:41:00,26.6,21.0,30.01,SW,227,2.3,0.0,79,0.00,CLR,SKC,0.00,WeatherDisplay:10.37,2013-02-05 01:41:00,
2013-02-04 19:46:00,26.6,21.0,30.01,SW,220,3.5,3.5,79,0.00,CLR,SKC,0.00,WeatherDisplay:10.37,2013-02-05 01:46:00,
2013-02-04 19:51:00,26.6,21.0,30.00,SW,220,3.5,3.5,79,0.00,CLR,SKC,0.00,WeatherDisplay:10.37,2013-02-05 01:51:00,
2013-02-04 19:56:00,26.4,20.8,30.00,SSW,206,5.8,0.0,79,0.00,CLR,SKC,0.00,WeatherDisplay:10.37,2013-02-05 01:56:00,
2013-02-04 20:01:00,26.4,21.1,30.00,SSW,206,6.4,6.4,80,0.00,CLR,SKC,0.00,WeatherDisplay:10.37,2013-02-05 02:01:00,
2013-02-04 20:06:00,26.4,21.1,30.01,SSW,206,3.5,3.5,80,0.00,CLR,SKC,0.00,WeatherDisplay:10.37,2013-02-05 02:06:00,
2013-02-04 20:11:00,26.4,21.1,30.00,WSW,241,6.9,6.9,80,0.00,CLR,SKC,0.00,WeatherDisplay:10.37,2013-02-05 02:11:00,
2013-02-04 20:16:00,26.4,21.1,30.00,WSW,245,3.5,0.0,80,0.00,CLR,SKC,0.00,WeatherDisplay:10.37,2013-02-05 02:16:00,
2013-02-04 20:21:00,26.4,21.1,30.00,WSW,244,1.1,1.1,80,0.00,CLR,SKC,0.00,WeatherDisplay:10.37,2013-02-05 02:21:00,
2013-02-04 20:26:00,26.6,21.6,30.00,SSW,212,5.8,5.8,81,0.00,CLR,SKC,0.00,WeatherDisplay:10.37,2013-02-05 02:26:00,
2013-02-04 20:31:00,26.6,21.6,30.00,SSW,210,6.9,6.9,81,0.00,CLR,SKC,0.00,WeatherDisplay:10.37,2013-02-05 02:31:00,
2013-02-04 20:36:00,26.6,21.6,29.99,SW,216,6.9,6.9,81,0.00,CLR,SKC,0.00,WeatherDisplay:10.37,2013-02-05 02:36:00,
2013-02-04 20:41:00,26.6,21.6,29.99,South,182,7.4,7.4,81,0.00,CLR,SKC,0.00,WeatherDisplay:10.37,2013-02-05 02:41:00,
2013-02-04 20:46:00,26.6,21.6,29.99,SW,224,5.3,5.3,81,0.00,CLR,SKC,0.00,WeatherDisplay:10.37,2013-02-05 02:46:00,
2013-02-04 20:51:00,26.6,21.6,29.99,SW,224,3.5,3.5,81,0.00,CLR,SKC,0.00,WeatherDisplay:10.37,2013-02-05 02:51:00,
2013-02-04 20:56:00,26.6,21.6,29.98,SSW,202,6.4,6.4,81,0.00,CLR,SKC,0.00,WeatherDisplay:10.37,2013-02-05 02:56:00,
2013-02-04 21:01:00,26.6,21.6,29.98,SSW,202,4.6,4.6,81,0.00,CLR,SKC,0.00,WeatherDisplay:10.37,2013-02-05 03:01:00,
2013-02-04 21:07:00,26.6,21.8,29.97,SSW,213,4.6,4.6,82,0.00,CLR,SKC,0.00,WeatherDisplay:10.37,2013-02-05 03:07:00,
2013-02-04 21:12:00,26.6,21.8,29.97,SW,214,3.5,3.5,82,0.00,CLR,SKC,0.00,WeatherDisplay:10.37,2013-02-05 03:12:00,
2013-02-04 21:17:00,26.6,21.8,29.97,SSW,196,7.4,7.4,82,0.00,CLR,SKC,0.00,WeatherDisplay:10.37,2013-02-05 03:17:00,
2013-02-04 21:22:00,26.6,21.8,29.97,SSW,196,6.9,6.9,82,0.00,CLR,SKC,0.00,WeatherDisplay:10.37,2013-02-05 03:22:00,
2013-02-04 21:27:00,26.6,21.8,29.97,SW,214,7.4,7.4,82,0.00,CLR,SKC,0.00,WeatherDisplay:10.37,2013-02-05 03:27:00,
2013-02-04 21:32:00,26.6,21.8,29.96,SSW,196,3.5,3.5,82,0.00,CLR,SKC,0.00,WeatherDisplay:10.37,2013-02-05 03:32:00,
2013-02-04 21:37:00,26.6,22.1,29.96,South,180,7.4,7.4,83,0.00,CLR,SKC,0.00,WeatherDisplay:10.37,2013-02-05 03:37:00,
2013-02-04 21:42:00,26.6,22.1,29.96,SSE,158,7.4,7.4,83,0.00,CLR,SKC,0.00,WeatherDisplay:10.37,2013-02-05 03:42:00,
2013-02-04 21:47:00,26.4,21.9,29.95,South,176,6.9,6.9,83,0.00,CLR,SKC,0.00,WeatherDisplay:10.37,2013-02-05 03:47:00,
2013-02-04 21:52:00,26.3,21.8,29.96,SW,214,7.4,7.4,83,0.00,CLR,SKC,0.00,WeatherDisplay:10.37,2013-02-05 03:52:00,
2013-02-04 21:57:00,26.3,21.8,29.96,SSW,200,4.6,4.6,83,0.00,CLR,SKC,0.00,WeatherDisplay:10.37,2013-02-05 03:57:00,
2013-02-04 22:02:00,26.3,22.1,29.95,SSW,196,6.4,6.4,84,0.00,CLR,SKC,0.00,WeatherDisplay:10.37,2013-02-05 04:02:00,
2013-02-04 22:07:00,26.3,22.1,29.95,SSW,203,3.5,3.5,84,0.00,CLR,SKC,0.00,WeatherDisplay:10.37,2013-02-05 04:07:00,
2013-02-04 22:12:00,26.3,22.1,29.94,SSW,209,2.3,2.3,84,0.00,CLR,SKC,0.00,WeatherDisplay:10.37,2013-02-05 04:12:00,
2013-02-04 22:17:00,26.3,22.1,29.94,SSW,199,3.2,3.2,84,0.00,CLR,SKC,0.00,WeatherDisplay:10.37,2013-02-05 04:17:00,
2013-02-04 22:22:00,26.1,21.9,29.94,SSW,196,3.5,3.5,84,0.00,CLR,SKC,0.00,WeatherDisplay:10.37,2013-02-05 04:22:00,
2013-02-04 22:27:00,26.1,21.9,29.94,SSW,204,3.5,3.5,84,0.00,CLR,SKC,0.00,WeatherDisplay:10.37,2013-02-05 04:27:00,
2013-02-04 22:32:00,26.1,21.9,29.94,SSW,203,4.6,4.6,84,0.00,CLR,SKC,0.00,WeatherDisplay:10.37,2013-02-05 04:32:00,
2013-02-04 22:37:00,26.1,21.9,29.94,South,172,3.5,3.5,84,0.00,CLR,SKC,0.00,WeatherDisplay:10.37,2013-02-05 04:37:00,
2013-02-04 22:42:00,26.0,22.1,29.94,South,188,6.4,6.4,85,0.00,CLR,SKC,0.00,WeatherDisplay:10.37,2013-02-05 04:42:00,
2013-02-04 22:47:00,26.0,22.1,29.94,SSW,200,4.2,4.2,85,0.00,CLR,SKC,0.00,WeatherDisplay:10.37,2013-02-05 04:47:00,
2013-02-04 22:52:00,26.0,22.1,29.94,SSW,200,5.8,5.8,85,0.00,CLR,SKC,0.00,WeatherDisplay:10.37,2013-02-05 04:52:00,
2013-02-04 22:57:00,26.0,22.1,29.94,SSW,195,4.6,4.6,85,0.00,CLR,SKC,0.00,WeatherDisplay:10.37,2013-02-05 04:57:00,
2013-02-04 23:00:00,26.0,22.1,29.94,SSW,195,2.3,2.3,85,0.00,CLR,SKC,0.00,WeatherDisplay:10.37,2013-02-05 05:00:00,
2013-02-04 23:05:00,25.8,21.9,29.94,SSW,195,2.3,2.3,85,0.00,CLR,SKC,0.00,WeatherDisplay:10.37,2013-02-05 05:05:00,
2013-02-04 23:10:00,25.8,21.9,29.94,SSW,195,1.1,1.1,85,0.00,CLR,SKC,0.00,WeatherDisplay:10.37,2013-02-05 05:10:00,
2013-02-04 23:15:00,25.8,21.9,29.94,SSW,195,2.1,2.1,85,0.00,CLR,SKC,0.00,WeatherDisplay:10.37,2013-02-05 05:15:00,
2013-02-04 23:20:00,25.8,21.9,29.93,SSW,195,3.5,3.5,85,0.00,CLR,SKC,0.00,WeatherDisplay:10.37,2013-02-05 05:20:00,
2013-02-04 23:25:00,25.8,21.9,29.93,SSW,195,3.5,3.5,85,0.00,CLR,SKC,0.00,WeatherDisplay:10.37,2013-02-05 05:25:00,
2013-02-04 23:30:00,25.8,21.9,29.93,SSW,195,3.5,3.5,85,0.00,CLR,SKC,0.00,WeatherDisplay:10.37,2013-02-05 05:30:00,
2013-02-04 23:35:00,25.8,22.2,29.92,SSW,195,2.3,2.3,86,0.00,CLR,SKC,0.00,WeatherDisplay:10.37,2013-02-05 05:35:00,
2013-02-04 23:40:00,25.8,22.2,29.92,South,185,3.2,3.2,86,0.00,CLR,SKC,0.00,WeatherDisplay:10.37,2013-02-05 05:40:00,
2013-02-04 23:45:00,25.8,22.2,29.92,SSW,193,5.8,5.8,86,0.00,CLR,SKC,0.00,WeatherDisplay:10.37,2013-02-05 05:45:00,
2013-02-04 23:50:00,25.8,22.2,29.92,South,178,6.9,6.9,86,0.00,CLR,SKC,0.00,WeatherDisplay:10.37,2013-02-05 05:50:00,
2013-02-04 23:55:00,26.0,22.4,29.92,SSW,195,5.8,5.8,86,0.00,CLR,SKC,0.00,WeatherDisplay:10.37,2013-02-05 05:55:00,